sensor_id;sensor_type;location;lat;lon;timestamp;temperature;humidity
14210;DHT22;7188;56.070;12.698;2022-10-17T00:00:03;9.80;99.90
14210;DHT22;7188;56.070;12.698;2022-10-17T00:02:30;9.80;99.90
14210;DHT22;7188;56.070;12.698;2022-10-17T00:04:55;9.80;99.90
14210;DHT22;7188;56.070;12.698;2022-10-17T00:07:22;9.80;99.90
14210;DHT22;7188;56.070;12.698;2022-10-17T00:09:47;9.80;99.90
14210;DHT22;7188;56.070;12.698;2022-10-17T00:12:16;9.80;99.90
14210;DHT22;7188;56.070;12.698;2022-10-17T00:14:41;9.80;99.90
14210;DHT22;7188;56.070;12.698;2022-10-17T00:17:07;9.70;99.90
14210;DHT22;7188;56.070;12.698;2022-10-17T00:19:33;9.80;99.90
14210;DHT22;7188;56.070;12.698;2022-10-17T00:21:59;9.70;99.90
14210;DHT22;7188;56.070;12.698;2022-10-17T00:24:24;9.80;99.90
14210;DHT22;7188;56.070;12.698;2022-10-17T00:26:50;9.80;99.90
14210;DHT22;7188;56.070;12.698;2022-10-17T00:29:16;9.80;99.90
14210;DHT22;7188;56.070;12.698;2022-10-17T00:31:41;9.80;99.90
14210;DHT22;7188;56.070;12.698;2022-10-17T00:34:07;9.80;99.90
14210;DHT22;7188;56.070;12.698;2022-10-17T00:36:32;9.80;99.90
14210;DHT22;7188;56.070;12.698;2022-10-17T00:38:59;9.80;99.90
14210;DHT22;7188;56.070;12.698;2022-10-17T00:41:27;9.80;99.90
14210;DHT22;7188;56.070;12.698;2022-10-17T00:43:57;9.80;99.90
14210;DHT22;7188;56.070;12.698;2022-10-17T00:46:26;9.80;99.90
14210;DHT22;7188;56.070;12.698;2022-10-17T00:48:53;9.80;99.90
14210;DHT22;7188;56.070;12.698;2022-10-17T00:51:29;9.80;99.90
14210;DHT22;7188;56.070;12.698;2022-10-17T00:53:58;9.80;99.90
14210;DHT22;7188;56.070;12.698;2022-10-17T00:56:25;9.70;99.90
14210;DHT22;7188;56.070;12.698;2022-10-17T00:58:51;9.70;99.90
14210;DHT22;7188;56.070;12.698;2022-10-17T01:01:16;9.70;99.90
14210;DHT22;7188;56.070;12.698;2022-10-17T01:03:42;9.70;99.90
14210;DHT22;7188;56.070;12.698;2022-10-17T01:06:08;9.60;99.90
14210;DHT22;7188;56.070;12.698;2022-10-17T01:08:34;9.60;99.90
14210;DHT22;7188;56.070;12.698;2022-10-17T01:13:52;9.60;99.90
14210;DHT22;7188;56.070;12.698;2022-10-17T01:16:27;9.60;99.90
14210;DHT22;7188;56.070;12.698;2022-10-17T01:19:00;9.50;99.90
14210;DHT22;7188;56.070;12.698;2022-10-17T01:21:41;9.50;99.90
14210;DHT22;7188;56.070;12.698;2022-10-17T01:37:20;9.40;99.90
14210;DHT22;7188;56.070;12.698;2022-10-17T01:40:02;9.40;99.90
14210;DHT22;7188;56.070;12.698;2022-10-17T01:42:36;9.40;99.90
14210;DHT22;7188;56.070;12.698;2022-10-17T01:45:13;9.40;99.90
14210;DHT22;7188;56.070;12.698;2022-10-17T01:47:41;9.40;99.90
14210;DHT22;7188;56.070;12.698;2022-10-17T01:50:22;9.40;99.90
14210;DHT22;7188;56.070;12.698;2022-10-17T01:52:57;9.30;99.90
14210;DHT22;7188;56.070;12.698;2022-10-17T01:55:31;9.30;99.90
14210;DHT22;7188;56.070;12.698;2022-10-17T01:58:08;9.30;99.90
14210;DHT22;7188;56.070;12.698;2022-10-17T02:00:35;9.30;99.90
14210;DHT22;7188;56.070;12.698;2022-10-17T02:03:06;9.30;99.90
14210;DHT22;7188;56.070;12.698;2022-10-17T02:05:36;9.20;99.90
14210;DHT22;7188;56.070;12.698;2022-10-17T02:08:03;9.30;99.90
14210;DHT22;7188;56.070;12.698;2022-10-17T02:29:29;9.10;99.90
14210;DHT22;7188;56.070;12.698;2022-10-17T02:32:01;9.10;99.90
14210;DHT22;7188;56.070;12.698;2022-10-17T02:34:41;9.10;99.90
14210;DHT22;7188;56.070;12.698;2022-10-17T02:37:09;9.10;99.90
14210;DHT22;7188;56.070;12.698;2022-10-17T02:39:36;9.10;99.90
14210;DHT22;7188;56.070;12.698;2022-10-17T02:42:06;9.10;99.90
14210;DHT22;7188;56.070;12.698;2022-10-17T02:44:35;9.00;99.90
14210;DHT22;7188;56.070;12.698;2022-10-17T02:47:49;8.80;99.90
14210;DHT22;7188;56.070;12.698;2022-10-17T02:50:14;8.80;99.90
14210;DHT22;7188;56.070;12.698;2022-10-17T02:52:47;8.60;99.90
14210;DHT22;7188;56.070;12.698;2022-10-17T02:55:30;8.60;99.90
14210;DHT22;7188;56.070;12.698;2022-10-17T02:58:07;8.60;99.90
14210;DHT22;7188;56.070;12.698;2022-10-17T03:00:34;8.60;99.90
14210;DHT22;7188;56.070;12.698;2022-10-17T03:03:24;8.50;99.90
14210;DHT22;7188;56.070;12.698;2022-10-17T03:05:51;8.50;99.90
14210;DHT22;7188;56.070;12.698;2022-10-17T03:08:17;8.50;99.90
14210;DHT22;7188;56.070;12.698;2022-10-17T03:10:43;8.40;99.90
14210;DHT22;7188;56.070;12.698;2022-10-17T03:13:09;8.40;99.90
14210;DHT22;7188;56.070;12.698;2022-10-17T03:15:34;8.40;99.90
14210;DHT22;7188;56.070;12.698;2022-10-17T03:18:00;8.40;99.90
14210;DHT22;7188;56.070;12.698;2022-10-17T03:20:25;8.40;99.90
14210;DHT22;7188;56.070;12.698;2022-10-17T03:22:51;8.40;99.90
14210;DHT22;7188;56.070;12.698;2022-10-17T03:25:17;8.40;99.90
14210;DHT22;7188;56.070;12.698;2022-10-17T03:27:42;8.40;99.90
14210;DHT22;7188;56.070;12.698;2022-10-17T03:30:08;8.40;99.90
14210;DHT22;7188;56.070;12.698;2022-10-17T03:32:34;8.40;99.90
14210;DHT22;7188;56.070;12.698;2022-10-17T03:35:00;8.30;99.90
14210;DHT22;7188;56.070;12.698;2022-10-17T03:37:26;8.40;99.90
14210;DHT22;7188;56.070;12.698;2022-10-17T03:39:52;8.40;99.90
14210;DHT22;7188;56.070;12.698;2022-10-17T03:42:17;8.40;99.90
14210;DHT22;7188;56.070;12.698;2022-10-17T03:44:44;8.40;99.90
14210;DHT22;7188;56.070;12.698;2022-10-17T03:47:10;8.40;99.90
14210;DHT22;7188;56.070;12.698;2022-10-17T03:49:36;8.50;99.90
14210;DHT22;7188;56.070;12.698;2022-10-17T03:52:01;8.40;99.90
14210;DHT22;7188;56.070;12.698;2022-10-17T03:54:27;8.40;99.90
14210;DHT22;7188;56.070;12.698;2022-10-17T03:56:53;8.40;99.90
14210;DHT22;7188;56.070;12.698;2022-10-17T03:59:18;8.40;99.90
14210;DHT22;7188;56.070;12.698;2022-10-17T04:01:44;8.40;99.90
14210;DHT22;7188;56.070;12.698;2022-10-17T04:04:10;8.50;99.90
14210;DHT22;7188;56.070;12.698;2022-10-17T04:06:36;8.60;99.90
14210;DHT22;7188;56.070;12.698;2022-10-17T04:09:02;8.60;99.90
14210;DHT22;7188;56.070;12.698;2022-10-17T04:11:28;8.60;99.90
14210;DHT22;7188;56.070;12.698;2022-10-17T04:13:56;8.60;99.90
14210;DHT22;7188;56.070;12.698;2022-10-17T04:16:22;8.60;99.90
14210;DHT22;7188;56.070;12.698;2022-10-17T04:18:52;8.50;99.90
14210;DHT22;7188;56.070;12.698;2022-10-17T04:21:20;8.50;99.90
14210;DHT22;7188;56.070;12.698;2022-10-17T04:23:45;8.40;99.90
14210;DHT22;7188;56.070;12.698;2022-10-17T04:26:11;8.50;99.90
14210;DHT22;7188;56.070;12.698;2022-10-17T04:28:37;8.40;99.90
14210;DHT22;7188;56.070;12.698;2022-10-17T04:31:04;8.40;99.90
14210;DHT22;7188;56.070;12.698;2022-10-17T04:33:31;8.30;99.90
14210;DHT22;7188;56.070;12.698;2022-10-17T04:36:01;8.30;99.90
14210;DHT22;7188;56.070;12.698;2022-10-17T04:38:28;8.30;99.90
14210;DHT22;7188;56.070;12.698;2022-10-17T04:40:58;8.30;99.90
14210;DHT22;7188;56.070;12.698;2022-10-17T04:43:30;8.20;99.90
14210;DHT22;7188;56.070;12.698;2022-10-17T04:45:57;8.20;99.90
14210;DHT22;7188;56.070;12.698;2022-10-17T04:48:23;8.10;99.90
14210;DHT22;7188;56.070;12.698;2022-10-17T04:50:53;8.10;99.90
14210;DHT22;7188;56.070;12.698;2022-10-17T04:53:19;8.10;99.90
14210;DHT22;7188;56.070;12.698;2022-10-17T04:55:44;8.10;99.90
14210;DHT22;7188;56.070;12.698;2022-10-17T04:58:10;8.00;99.90
14210;DHT22;7188;56.070;12.698;2022-10-17T05:00:36;7.90;99.90
14210;DHT22;7188;56.070;12.698;2022-10-17T05:03:01;7.80;99.90
14210;DHT22;7188;56.070;12.698;2022-10-17T05:05:27;7.70;99.90
14210;DHT22;7188;56.070;12.698;2022-10-17T05:07:52;7.70;99.90
14210;DHT22;7188;56.070;12.698;2022-10-17T05:10:18;7.70;99.90
14210;DHT22;7188;56.070;12.698;2022-10-17T05:12:46;7.70;99.90
14210;DHT22;7188;56.070;12.698;2022-10-17T05:15:12;7.70;99.90
14210;DHT22;7188;56.070;12.698;2022-10-17T05:17:37;7.70;99.90
14210;DHT22;7188;56.070;12.698;2022-10-17T05:20:03;7.70;99.90
14210;DHT22;7188;56.070;12.698;2022-10-17T05:22:29;7.70;99.90
14210;DHT22;7188;56.070;12.698;2022-10-17T05:24:56;7.70;99.90
14210;DHT22;7188;56.070;12.698;2022-10-17T05:27:22;7.70;99.90
14210;DHT22;7188;56.070;12.698;2022-10-17T05:29:47;7.80;99.90
14210;DHT22;7188;56.070;12.698;2022-10-17T05:32:14;7.80;99.90
14210;DHT22;7188;56.070;12.698;2022-10-17T05:34:40;7.90;99.90
14210;DHT22;7188;56.070;12.698;2022-10-17T05:37:05;7.90;99.90
14210;DHT22;7188;56.070;12.698;2022-10-17T05:39:31;8.00;99.90
14210;DHT22;7188;56.070;12.698;2022-10-17T05:41:57;8.00;99.90
14210;DHT22;7188;56.070;12.698;2022-10-17T05:44:22;8.00;99.90
14210;DHT22;7188;56.070;12.698;2022-10-17T05:46:48;8.10;99.90
14210;DHT22;7188;56.070;12.698;2022-10-17T05:49:14;8.10;99.90
14210;DHT22;7188;56.070;12.698;2022-10-17T05:51:40;8.10;99.90
14210;DHT22;7188;56.070;12.698;2022-10-17T05:54:06;8.10;99.90
14210;DHT22;7188;56.070;12.698;2022-10-17T05:56:32;8.20;99.90
14210;DHT22;7188;56.070;12.698;2022-10-17T05:58:57;8.20;99.90
14210;DHT22;7188;56.070;12.698;2022-10-17T06:01:23;8.20;99.90
14210;DHT22;7188;56.070;12.698;2022-10-17T06:03:49;8.30;99.90
14210;DHT22;7188;56.070;12.698;2022-10-17T06:06:15;8.30;99.90
14210;DHT22;7188;56.070;12.698;2022-10-17T06:08:41;8.40;99.90
14210;DHT22;7188;56.070;12.698;2022-10-17T06:11:07;8.40;99.90
14210;DHT22;7188;56.070;12.698;2022-10-17T06:13:33;8.50;99.90
14210;DHT22;7188;56.070;12.698;2022-10-17T06:15:58;8.50;99.90
14210;DHT22;7188;56.070;12.698;2022-10-17T06:18:24;8.60;99.90
14210;DHT22;7188;56.070;12.698;2022-10-17T06:20:51;8.70;99.90
14210;DHT22;7188;56.070;12.698;2022-10-17T06:23:17;8.70;99.90
14210;DHT22;7188;56.070;12.698;2022-10-17T06:25:43;8.70;99.90
14210;DHT22;7188;56.070;12.698;2022-10-17T06:28:09;8.80;99.90
14210;DHT22;7188;56.070;12.698;2022-10-17T06:30:37;8.80;99.90
14210;DHT22;7188;56.070;12.698;2022-10-17T06:33:03;8.80;99.90
14210;DHT22;7188;56.070;12.698;2022-10-17T06:35:30;8.90;99.90
14210;DHT22;7188;56.070;12.698;2022-10-17T06:37:55;8.90;99.90
14210;DHT22;7188;56.070;12.698;2022-10-17T06:40:21;8.90;99.90
14210;DHT22;7188;56.070;12.698;2022-10-17T06:42:47;9.00;99.90
14210;DHT22;7188;56.070;12.698;2022-10-17T06:45:13;9.00;99.90
14210;DHT22;7188;56.070;12.698;2022-10-17T06:47:39;9.10;99.90
14210;DHT22;7188;56.070;12.698;2022-10-17T06:50:05;9.10;99.90
14210;DHT22;7188;56.070;12.698;2022-10-17T06:52:30;9.10;99.90
14210;DHT22;7188;56.070;12.698;2022-10-17T06:54:56;9.20;99.90
14210;DHT22;7188;56.070;12.698;2022-10-17T06:57:22;9.20;99.90
14210;DHT22;7188;56.070;12.698;2022-10-17T06:59:47;9.30;99.90
14210;DHT22;7188;56.070;12.698;2022-10-17T07:02:13;9.30;99.90
14210;DHT22;7188;56.070;12.698;2022-10-17T07:04:38;9.40;99.90
14210;DHT22;7188;56.070;12.698;2022-10-17T07:07:04;9.40;99.90
14210;DHT22;7188;56.070;12.698;2022-10-17T07:09:30;9.50;99.90
14210;DHT22;7188;56.070;12.698;2022-10-17T07:11:58;9.60;99.90
14210;DHT22;7188;56.070;12.698;2022-10-17T07:14:25;9.70;99.90
14210;DHT22;7188;56.070;12.698;2022-10-17T07:16:57;9.80;99.90
14210;DHT22;7188;56.070;12.698;2022-10-17T07:19:23;9.80;99.90
14210;DHT22;7188;56.070;12.698;2022-10-17T07:21:49;9.90;99.90
14210;DHT22;7188;56.070;12.698;2022-10-17T07:24:14;9.90;99.90
14210;DHT22;7188;56.070;12.698;2022-10-17T07:26:40;10.00;99.90
14210;DHT22;7188;56.070;12.698;2022-10-17T07:29:05;10.00;99.90
14210;DHT22;7188;56.070;12.698;2022-10-17T07:31:32;10.00;99.90
14210;DHT22;7188;56.070;12.698;2022-10-17T07:34:01;10.10;99.90
14210;DHT22;7188;56.070;12.698;2022-10-17T07:36:26;10.10;99.90
14210;DHT22;7188;56.070;12.698;2022-10-17T07:38:52;10.10;99.90
14210;DHT22;7188;56.070;12.698;2022-10-17T07:41:18;10.20;99.90
14210;DHT22;7188;56.070;12.698;2022-10-17T07:43:45;10.20;99.90
14210;DHT22;7188;56.070;12.698;2022-10-17T07:46:11;10.30;99.90
14210;DHT22;7188;56.070;12.698;2022-10-17T07:48:40;10.30;99.90
14210;DHT22;7188;56.070;12.698;2022-10-17T07:51:07;10.40;99.90
14210;DHT22;7188;56.070;12.698;2022-10-17T07:53:37;10.50;99.90
14210;DHT22;7188;56.070;12.698;2022-10-17T07:56:07;10.60;99.90
14210;DHT22;7188;56.070;12.698;2022-10-17T07:58:34;10.60;99.90
14210;DHT22;7188;56.070;12.698;2022-10-17T08:01:03;10.70;99.90
14210;DHT22;7188;56.070;12.698;2022-10-17T08:03:29;10.80;99.90
14210;DHT22;7188;56.070;12.698;2022-10-17T08:05:59;10.90;99.90
14210;DHT22;7188;56.070;12.698;2022-10-17T08:08:25;10.90;99.90
14210;DHT22;7188;56.070;12.698;2022-10-17T08:10:51;11.00;99.90
14210;DHT22;7188;56.070;12.698;2022-10-17T08:13:16;11.00;99.90
14210;DHT22;7188;56.070;12.698;2022-10-17T08:15:42;11.10;99.90
14210;DHT22;7188;56.070;12.698;2022-10-17T08:18:08;11.10;99.90
14210;DHT22;7188;56.070;12.698;2022-10-17T08:20:33;11.20;99.90
14210;DHT22;7188;56.070;12.698;2022-10-17T08:22:59;11.30;99.90
14210;DHT22;7188;56.070;12.698;2022-10-17T08:25:24;11.30;99.90
14210;DHT22;7188;56.070;12.698;2022-10-17T08:27:50;11.40;99.90
14210;DHT22;7188;56.070;12.698;2022-10-17T08:30:16;11.50;99.90
14210;DHT22;7188;56.070;12.698;2022-10-17T08:32:42;11.60;99.90
14210;DHT22;7188;56.070;12.698;2022-10-17T08:35:08;11.60;99.90
14210;DHT22;7188;56.070;12.698;2022-10-17T08:37:34;11.60;99.90
14210;DHT22;7188;56.070;12.698;2022-10-17T08:39:59;11.70;99.90
14210;DHT22;7188;56.070;12.698;2022-10-17T08:42:47;11.70;99.90
14210;DHT22;7188;56.070;12.698;2022-10-17T08:45:40;11.70;99.90
14210;DHT22;7188;56.070;12.698;2022-10-17T08:48:13;11.80;99.90
14210;DHT22;7188;56.070;12.698;2022-10-17T08:53:23;11.80;99.90
14210;DHT22;7188;56.070;12.698;2022-10-17T08:55:52;11.90;99.90
14210;DHT22;7188;56.070;12.698;2022-10-17T08:58:28;11.90;99.90
14210;DHT22;7188;56.070;12.698;2022-10-17T09:04:14;12.00;99.90
14210;DHT22;7188;56.070;12.698;2022-10-17T09:07:35;12.00;99.90
14210;DHT22;7188;56.070;12.698;2022-10-17T09:15:30;12.10;99.90
14210;DHT22;7188;56.070;12.698;2022-10-17T09:17:59;12.10;99.90
14210;DHT22;7188;56.070;12.698;2022-10-17T09:20:33;12.20;99.90
14210;DHT22;7188;56.070;12.698;2022-10-17T09:23:24;12.30;93.20
14210;DHT22;7188;56.070;12.698;2022-10-17T09:25:58;12.20;40.10
14210;DHT22;7188;56.070;12.698;2022-10-17T09:28:27;12.30;33.20
14210;DHT22;7188;56.070;12.698;2022-10-17T09:35:59;12.50;1.00
14210;DHT22;7188;56.070;12.698;2022-10-17T09:38:40;12.60;1.00
14210;DHT22;7188;56.070;12.698;2022-10-17T09:41:32;12.70;1.00
14210;DHT22;7188;56.070;12.698;2022-10-17T09:44:13;12.70;1.00
14210;DHT22;7188;56.070;12.698;2022-10-17T09:46:39;12.70;1.00
14210;DHT22;7188;56.070;12.698;2022-10-17T09:49:16;12.80;1.00
14210;DHT22;7188;56.070;12.698;2022-10-17T09:51:42;12.80;1.00
14210;DHT22;7188;56.070;12.698;2022-10-17T09:54:25;12.90;1.00
14210;DHT22;7188;56.070;12.698;2022-10-17T09:57:06;13.00;1.00
14210;DHT22;7188;56.070;12.698;2022-10-17T09:59:57;13.10;1.00
14210;DHT22;7188;56.070;12.698;2022-10-17T10:02:24;13.30;1.00
14210;DHT22;7188;56.070;12.698;2022-10-17T10:05:05;13.30;99.90
14210;DHT22;7188;56.070;12.698;2022-10-17T10:07:40;13.40;99.90
14210;DHT22;7188;56.070;12.698;2022-10-17T10:10:22;13.40;99.90
14210;DHT22;7188;56.070;12.698;2022-10-17T10:15:38;13.40;1.00
14210;DHT22;7188;56.070;12.698;2022-10-17T10:18:27;13.40;1.00
14210;DHT22;7188;56.070;12.698;2022-10-17T10:21:14;13.40;99.90
14210;DHT22;7188;56.070;12.698;2022-10-17T10:23:42;13.50;99.90
14210;DHT22;7188;56.070;12.698;2022-10-17T10:26:23;13.50;99.90
14210;DHT22;7188;56.070;12.698;2022-10-17T10:28:59;13.60;1.00
14210;DHT22;7188;56.070;12.698;2022-10-17T10:31:37;13.60;1.00
14210;DHT22;7188;56.070;12.698;2022-10-17T10:34:24;13.60;1.00
14210;DHT22;7188;56.070;12.698;2022-10-17T10:37:01;13.60;99.90
14210;DHT22;7188;56.070;12.698;2022-10-17T10:39:38;13.60;99.90
14210;DHT22;7188;56.070;12.698;2022-10-17T10:42:16;13.60;1.00
14210;DHT22;7188;56.070;12.698;2022-10-17T10:44:42;13.70;1.00
14210;DHT22;7188;56.070;12.698;2022-10-17T10:47:13;13.80;1.00
14210;DHT22;7188;56.070;12.698;2022-10-17T10:49:40;14.00;1.00
14210;DHT22;7188;56.070;12.698;2022-10-17T10:52:07;14.10;99.90
14210;DHT22;7188;56.070;12.698;2022-10-17T10:54:38;14.10;99.90
14210;DHT22;7188;56.070;12.698;2022-10-17T10:57:09;14.20;99.90
14210;DHT22;7188;56.070;12.698;2022-10-17T10:59:52;14.30;99.90
14210;DHT22;7188;56.070;12.698;2022-10-17T11:02:33;14.20;99.90
14210;DHT22;7188;56.070;12.698;2022-10-17T11:05:05;14.30;99.90
14210;DHT22;7188;56.070;12.698;2022-10-17T11:10:29;14.20;99.90
14210;DHT22;7188;56.070;12.698;2022-10-17T11:15:51;14.30;1.00
14210;DHT22;7188;56.070;12.698;2022-10-17T11:18:34;14.30;1.00
14210;DHT22;7188;56.070;12.698;2022-10-17T11:26:45;14.50;99.90
14210;DHT22;7188;56.070;12.698;2022-10-17T11:29:13;14.50;99.90
14210;DHT22;7188;56.070;12.698;2022-10-17T11:31:46;14.60;99.90
14210;DHT22;7188;56.070;12.698;2022-10-17T11:34:27;14.70;99.90
14210;DHT22;7188;56.070;12.698;2022-10-17T11:36:58;14.70;99.90
14210;DHT22;7188;56.070;12.698;2022-10-17T11:39:39;14.70;99.90
14210;DHT22;7188;56.070;12.698;2022-10-17T11:42:17;14.80;99.90
14210;DHT22;7188;56.070;12.698;2022-10-17T11:44:44;14.90;99.90
14210;DHT22;7188;56.070;12.698;2022-10-17T11:50:34;15.00;99.90
14210;DHT22;7188;56.070;12.698;2022-10-17T11:53:10;15.10;99.90
14210;DHT22;7188;56.070;12.698;2022-10-17T11:55:37;15.20;99.90
14210;DHT22;7188;56.070;12.698;2022-10-17T12:06:07;15.30;21.40
14210;DHT22;7188;56.070;12.698;2022-10-17T12:11:07;15.30;1.00
14210;DHT22;7188;56.070;12.698;2022-10-17T12:21:27;15.60;1.00
14210;DHT22;7188;56.070;12.698;2022-10-17T12:23:53;15.70;1.00
14210;DHT22;7188;56.070;12.698;2022-10-17T12:26:27;15.70;99.90
14210;DHT22;7188;56.070;12.698;2022-10-17T12:28:55;15.70;99.90
14210;DHT22;7188;56.070;12.698;2022-10-17T12:31:23;15.80;99.90
14210;DHT22;7188;56.070;12.698;2022-10-17T12:33:57;15.90;19.30
14210;DHT22;7188;56.070;12.698;2022-10-17T12:52:24;16.00;1.00
14210;DHT22;7188;56.070;12.698;2022-10-17T12:54:57;16.00;85.20
14210;DHT22;7188;56.070;12.698;2022-10-17T12:57:31;15.90;1.00
14210;DHT22;7188;56.070;12.698;2022-10-17T13:00:15;16.00;68.90
14210;DHT22;7188;56.070;12.698;2022-10-17T13:02:42;15.90;99.90
14210;DHT22;7188;56.070;12.698;2022-10-17T13:05:33;15.90;38.60
14210;DHT22;7188;56.070;12.698;2022-10-17T13:08:02;15.90;1.00
14210;DHT22;7188;56.070;12.698;2022-10-17T13:10:31;15.90;90.50
14210;DHT22;7188;56.070;12.698;2022-10-17T13:15:51;15.80;99.90
14210;DHT22;7188;56.070;12.698;2022-10-17T13:18:23;15.80;1.00
14210;DHT22;7188;56.070;12.698;2022-10-17T13:23:35;15.80;53.00
14210;DHT22;7188;56.070;12.698;2022-10-17T13:26:11;15.80;71.40
14210;DHT22;7188;56.070;12.698;2022-10-17T13:28:37;15.80;1.00
14210;DHT22;7188;56.070;12.698;2022-10-17T13:31:03;15.80;40.80
14210;DHT22;7188;56.070;12.698;2022-10-17T13:33:35;15.80;63.70
14210;DHT22;7188;56.070;12.698;2022-10-17T13:36:06;15.80;99.90
14210;DHT22;7188;56.070;12.698;2022-10-17T13:38:33;15.90;99.90
14210;DHT22;7188;56.070;12.698;2022-10-17T13:41:01;15.90;99.90
14210;DHT22;7188;56.070;12.698;2022-10-17T13:43:28;15.90;99.90
14210;DHT22;7188;56.070;12.698;2022-10-17T13:45:59;15.90;99.90
14210;DHT22;7188;56.070;12.698;2022-10-17T13:48:29;15.90;1.00
14210;DHT22;7188;56.070;12.698;2022-10-17T13:50:57;15.90;99.90
14210;DHT22;7188;56.070;12.698;2022-10-17T13:53:38;15.90;1.00
14210;DHT22;7188;56.070;12.698;2022-10-17T13:56:22;15.90;1.00
14210;DHT22;7188;56.070;12.698;2022-10-17T13:58:53;15.90;1.00
14210;DHT22;7188;56.070;12.698;2022-10-17T14:01:22;15.90;1.00
14210;DHT22;7188;56.070;12.698;2022-10-17T14:03:48;15.90;28.80
14210;DHT22;7188;56.070;12.698;2022-10-17T14:06:25;15.90;99.90
14210;DHT22;7188;56.070;12.698;2022-10-17T14:11:31;15.80;99.90
14210;DHT22;7188;56.070;12.698;2022-10-17T14:13:58;15.80;99.90
14210;DHT22;7188;56.070;12.698;2022-10-17T14:16:26;15.80;99.90
14210;DHT22;7188;56.070;12.698;2022-10-17T14:18:52;15.80;99.90
14210;DHT22;7188;56.070;12.698;2022-10-17T14:21:22;15.80;99.90
14210;DHT22;7188;56.070;12.698;2022-10-17T14:23:48;15.70;1.00
14210;DHT22;7188;56.070;12.698;2022-10-17T14:26:20;15.70;1.00
14210;DHT22;7188;56.070;12.698;2022-10-17T14:28:49;15.70;1.00
14210;DHT22;7188;56.070;12.698;2022-10-17T14:31:24;15.60;1.00
14210;DHT22;7188;56.070;12.698;2022-10-17T14:33:53;15.60;1.00
14210;DHT22;7188;56.070;12.698;2022-10-17T14:36:28;15.50;1.00
14210;DHT22;7188;56.070;12.698;2022-10-17T14:38:54;15.50;1.00
14210;DHT22;7188;56.070;12.698;2022-10-17T14:41:30;15.50;1.00
14210;DHT22;7188;56.070;12.698;2022-10-17T14:44:07;15.40;1.00
14210;DHT22;7188;56.070;12.698;2022-10-17T14:46:43;15.40;1.00
14210;DHT22;7188;56.070;12.698;2022-10-17T14:49:20;15.40;1.00
14210;DHT22;7188;56.070;12.698;2022-10-17T14:54:37;15.30;11.60
14210;DHT22;7188;56.070;12.698;2022-10-17T14:59:46;15.20;99.90
14210;DHT22;7188;56.070;12.698;2022-10-17T15:02:12;15.20;99.90
14210;DHT22;7188;56.070;12.698;2022-10-17T15:04:38;15.20;99.90
14210;DHT22;7188;56.070;12.698;2022-10-17T15:07:03;15.20;99.90
14210;DHT22;7188;56.070;12.698;2022-10-17T15:09:29;15.10;99.90
14210;DHT22;7188;56.070;12.698;2022-10-17T15:11:59;15.10;99.90
14210;DHT22;7188;56.070;12.698;2022-10-17T15:14:27;15.00;99.90
14210;DHT22;7188;56.070;12.698;2022-10-17T15:16:52;15.00;99.90
14210;DHT22;7188;56.070;12.698;2022-10-17T15:19:18;15.00;99.90
14210;DHT22;7188;56.070;12.698;2022-10-17T15:21:44;14.90;99.90
14210;DHT22;7188;56.070;12.698;2022-10-17T15:24:10;14.80;99.90
14210;DHT22;7188;56.070;12.698;2022-10-17T15:26:36;14.80;99.90
14210;DHT22;7188;56.070;12.698;2022-10-17T15:29:02;14.80;99.90
14210;DHT22;7188;56.070;12.698;2022-10-17T15:31:28;14.70;99.90
14210;DHT22;7188;56.070;12.698;2022-10-17T15:33:55;14.80;99.90
14210;DHT22;7188;56.070;12.698;2022-10-17T15:39:00;14.60;99.90
14210;DHT22;7188;56.070;12.698;2022-10-17T15:41:28;14.60;99.90
14210;DHT22;7188;56.070;12.698;2022-10-17T15:43:54;14.60;99.90
14210;DHT22;7188;56.070;12.698;2022-10-17T15:46:25;14.60;99.90
14210;DHT22;7188;56.070;12.698;2022-10-17T15:48:52;14.60;99.90
14210;DHT22;7188;56.070;12.698;2022-10-17T15:51:19;14.60;99.90
14210;DHT22;7188;56.070;12.698;2022-10-17T15:53:45;14.50;99.90
14210;DHT22;7188;56.070;12.698;2022-10-17T15:56:25;14.50;99.90
14210;DHT22;7188;56.070;12.698;2022-10-17T15:58:52;14.50;99.90
14210;DHT22;7188;56.070;12.698;2022-10-17T16:01:21;14.50;99.90
14210;DHT22;7188;56.070;12.698;2022-10-17T16:03:48;14.50;99.90
14210;DHT22;7188;56.070;12.698;2022-10-17T16:06:19;14.50;99.90
14210;DHT22;7188;56.070;12.698;2022-10-17T16:08:46;14.40;99.90
14210;DHT22;7188;56.070;12.698;2022-10-17T16:11:33;14.40;99.90
14210;DHT22;7188;56.070;12.698;2022-10-17T16:14:01;14.40;99.90
14210;DHT22;7188;56.070;12.698;2022-10-17T16:16:28;14.40;99.90
14210;DHT22;7188;56.070;12.698;2022-10-17T16:18:54;14.40;99.90
14210;DHT22;7188;56.070;12.698;2022-10-17T16:21:23;14.40;99.90
14210;DHT22;7188;56.070;12.698;2022-10-17T16:23:49;14.30;99.90
14210;DHT22;7188;56.070;12.698;2022-10-17T16:26:15;14.30;99.90
14210;DHT22;7188;56.070;12.698;2022-10-17T16:28:44;14.30;99.90
14210;DHT22;7188;56.070;12.698;2022-10-17T16:31:19;14.30;99.90
14210;DHT22;7188;56.070;12.698;2022-10-17T16:33:47;14.30;99.90
14210;DHT22;7188;56.070;12.698;2022-10-17T16:36:13;14.30;99.90
14210;DHT22;7188;56.070;12.698;2022-10-17T16:38:38;14.30;99.90
14210;DHT22;7188;56.070;12.698;2022-10-17T16:41:07;14.30;99.90
14210;DHT22;7188;56.070;12.698;2022-10-17T16:43:38;14.30;99.90
14210;DHT22;7188;56.070;12.698;2022-10-17T16:46:04;14.30;99.90
14210;DHT22;7188;56.070;12.698;2022-10-17T16:48:29;14.30;99.90
14210;DHT22;7188;56.070;12.698;2022-10-17T16:50:55;14.30;99.90
14210;DHT22;7188;56.070;12.698;2022-10-17T16:53:21;14.40;99.90
14210;DHT22;7188;56.070;12.698;2022-10-17T16:55:58;14.40;99.90
14210;DHT22;7188;56.070;12.698;2022-10-17T16:58:24;14.40;99.90
14210;DHT22;7188;56.070;12.698;2022-10-17T17:00:51;14.40;99.90
14210;DHT22;7188;56.070;12.698;2022-10-17T17:03:18;14.40;99.90
14210;DHT22;7188;56.070;12.698;2022-10-17T17:05:49;14.40;99.90
14210;DHT22;7188;56.070;12.698;2022-10-17T17:08:15;14.40;99.90
14210;DHT22;7188;56.070;12.698;2022-10-17T17:10:45;14.40;99.90
14210;DHT22;7188;56.070;12.698;2022-10-17T17:13:11;14.40;99.90
14210;DHT22;7188;56.070;12.698;2022-10-17T17:15:37;14.40;99.90
14210;DHT22;7188;56.070;12.698;2022-10-17T17:18:03;14.40;99.90
14210;DHT22;7188;56.070;12.698;2022-10-17T17:20:29;14.50;99.90
14210;DHT22;7188;56.070;12.698;2022-10-17T17:22:55;14.50;99.90
14210;DHT22;7188;56.070;12.698;2022-10-17T17:25:21;14.50;99.90
14210;DHT22;7188;56.070;12.698;2022-10-17T17:27:47;14.50;99.90
14210;DHT22;7188;56.070;12.698;2022-10-17T17:30:12;14.50;99.90
14210;DHT22;7188;56.070;12.698;2022-10-17T17:32:38;14.50;99.90
14210;DHT22;7188;56.070;12.698;2022-10-17T17:35:04;14.60;99.90
14210;DHT22;7188;56.070;12.698;2022-10-17T17:37:30;14.50;99.90
14210;DHT22;7188;56.070;12.698;2022-10-17T17:39:55;14.50;99.90
14210;DHT22;7188;56.070;12.698;2022-10-17T17:42:21;14.50;99.90
14210;DHT22;7188;56.070;12.698;2022-10-17T17:44:47;14.50;99.90
14210;DHT22;7188;56.070;12.698;2022-10-17T17:47:13;14.60;99.90
14210;DHT22;7188;56.070;12.698;2022-10-17T17:49:39;14.60;99.90
14210;DHT22;7188;56.070;12.698;2022-10-17T17:52:06;14.60;99.90